Terminal Aerodrome Forecast
Issued by NWS Cleveland, OH

Home | Current Version | Previous Version | Graphics & Text | Print | Product List | Glossary Off
Versions: 1 2 3 4 5 6 7 8 9 10 11 12 13 14 15 16 17 18 19 20 21 22 23 24 25 26 27 28 29 30 31 32 33 34

000
FTUS41 KCLE 281900 AAA
TAFCLE
TAF AMD
KCLE 281902Z 2819/2924 33016G24KT P6SM BKN028 OVC035
     FM282000 33015G22KT P6SM SCT028 BKN040
     FM290100 34008KT P6SM BKN035
     FM290500 28005KT P6SM SCT030
     FM291500 27009KT P6SM VCSH BKN035=

USA.gov is the U.S. government's official web portal to all federal, state and local government web resources and services.